MSC Maya — 3FNF8 — position and weather

sailwx.info

Track history (hours):
 
Tides and Currents Weather Stations Pressure Air Temp Water Temp Dewpoint Dewpoint Depression Visibility Wind Speed Wind Dir Waves Ship Positions

MSC Maya

Last reported at 2014-Jul-09 18:21 UTC. Time now 2014-Jul-25 09:03 UTC.
Position N 33°40' W 076°52'.
Warning: this ship's position is 15 days out of date.

Length 180 m; draft 8.3 m.

Type: Cargo ship. MMSI: 351384000.

Date/timePositionNaut miles runAvg speedWind from/ knotsBaromVisibWave heightAir tempDewpointWater temp
2014-Jul-09 18:21N 33°40' W 076°52'1212.8
2014-Jul-09 17:25N 33°48' W 076°41'3113.5
2014-Jul-09 15:09N 34°07' W 076°12'913.5
2014-Jul-09 14:27N 34°13' W 076°04'1313.0
2014-Jul-09 13:28N 34°22' W 075°53'1914.0
2014-Jul-09 12:08N 34°36' W 075°38'913.7
2014-Jul-09 11:31N 34°43' W 075°31'1413.0
2014-Jul-09 10:26N 34°53' W 075°20'1011.6
2014-Jul-09 09:33N 35°00' W 075°11'11011.0
2014-Jul-08 23:33N 36°48' W 075°43'1413.4
2014-Jul-08 22:30N 36°56' W 075°57'1212.1
2014-Jul-08 21:32N 36°60' W 076°11'9 8.6
2014-Jul-08 20:32N 36°55' W 076°20'2 2.0
2014-Jul-08 19:24N 36°53' W 076°21'0 0.0
2014-Jul-08 15:31N 36°53' W 076°21'0 0.0
2014-Jul-08 11:27N 36°53' W 076°21'3 1.7
2014-Jul-08 09:29N 36°56' W 076°20'10 8.6
2014-Jul-08 08:18N 36°59' W 076°08'6 8.7
2014-Jul-08 07:33N 36°59' W 076°00'1514.6
2014-Jul-08 06:33N 37°12' W 076°09'9716.0
2014-Jul-08 00:30N 38°48' W 076°25'1516.3
2014-Jul-07 23:33N 39°03' W 076°23'1212.1
2014-Jul-07 22:34N 39°13' W 076°32'2 2.4
2014-Jul-07 21:31N 39°15' W 076°33'0 0.0
2014-Jul-07 20:31N 39°15' W 076°33'0 0.0
2014-Jul-07 19:31N 39°15' W 076°33'0 0.0
2014-Jul-07 18:25N 39°15' W 076°33'0 0.0
2014-Jul-07 17:32N 39°15' W 076°33'0 0.0
2014-Jul-07 16:32N 39°15' W 076°33'0 0.0
2014-Jul-07 15:32N 39°15' W 076°33'0 0.0
2014-Jul-07 14:32N 39°15' W 076°33'0 0.0
2014-Jul-07 13:32N 39°15' W 076°33'0 0.0
2014-Jul-07 12:32N 39°15' W 076°33'0 0.0
2014-Jul-07 11:32N 39°15' W 076°33'0 0.0
2014-Jul-07 10:32N 39°15' W 076°33'0 0.0
2014-Jul-07 09:33N 39°15' W 076°33'0 0.0
2014-Jul-07 08:33N 39°15' W 076°33'0 0.0
2014-Jul-07 07:33N 39°15' W 076°33'0 0.0
2014-Jul-07 06:33N 39°15' W 076°33'0 0.0
2014-Jul-07 05:33N 39°15' W 076°33'0 0.0
2014-Jul-07 04:34N 39°15' W 076°33'0 0.0
2014-Jul-07 03:33N 39°15' W 076°33'0 0.0
2014-Jul-07 02:33N 39°15' W 076°33'0 0.0
2014-Jul-07 01:33N 39°15' W 076°33'4 4.4
2014-Jul-07 00:33N 39°12' W 076°30'1212.5
2014-Jul-06 23:33N 39°01' W 076°23'1615.9
2014-Jul-06 22:33N 38°45' W 076°26'9215.2
2014-Jul-06 16:31N 37°14' W 076°08'1213.0
2014-Jul-06 15:33N 37°02' W 076°04'9 9.3
2014-Jul-06 14:33N 36°56' W 075°55'1211.7
2014-Jul-06 13:33N 36°49' W 075°43'2511.9
2014-Jul-06 11:25N 36°59' W 075°13'4 1.3
2014-Jul-06 08:16N 37°03' W 075°14'1215.4
2014-Jul-06 07:28N 37°13' W 075°05'13615.3
2014-Jul-05 22:33N 39°18' W 073°57'1716.5
2014-Jul-05 21:33N 39°35' W 073°54'1717.1
2014-Jul-05 20:33N 39°52' W 073°51'3515.5
2014-Jul-05 18:19N 40°26' W 073°49'1011.9
2014-Jul-05 17:27N 40°32' W 074°01'8 9.1
2014-Jul-05 16:34N 40°39' W 074°05'4 4.0
2014-Jul-05 15:33N 40°41' W 074°09'0 0.1
2014-Jul-05 14:32N 40°41' W 074°09'0 0.0
2014-Jul-05 13:31N 40°41' W 074°09'0 0.0
2014-Jul-05 12:32N 40°41' W 074°09'0 0.0
2014-Jul-05 11:32N 40°41' W 074°09'0 0.0
2014-Jul-05 10:29N 40°41' W 074°09'0 0.0
2014-Jul-05 09:32N 40°41' W 074°09'0 0.0
2014-Jul-05 08:32N 40°41' W 074°09'0 0.0
2014-Jul-05 07:32N 40°41' W 074°09'0 0.0
2014-Jul-05 06:32N 40°41' W 074°09'0 0.0
2014-Jul-05 05:32N 40°41' W 074°09'0 0.0
2014-Jul-05 04:32N 40°41' W 074°09'0 0.0
2014-Jul-05 03:32N 40°41' W 074°09'0 0.0
2014-Jul-05 02:32N 40°41' W 074°09'0 0.0
2014-Jul-05 01:32N 40°41' W 074°09'0 0.0
2014-Jul-05 00:32N 40°41' W 074°09'0 0.0
2014-Jul-04 23:32N 40°41' W 074°09'0 0.0
2014-Jul-04 22:32N 40°41' W 074°09'0 0.0
2014-Jul-04 21:32N 40°41' W 074°09'0 0.0
2014-Jul-04 20:32N 40°41' W 074°09'0 0.0
2014-Jul-04 19:33N 40°41' W 074°09'0 0.0
2014-Jul-04 18:27N 40°41' W 074°09'0 0.0
2014-Jul-04 17:33N 40°41' W 074°09'0 0.0
2014-Jul-04 16:33N 40°41' W 074°09'0 0.0
2014-Jul-04 15:33N 40°41' W 074°09'0 0.0
2014-Jul-04 14:33N 40°41' W 074°09'0 0.0
2014-Jul-04 13:33N 40°41' W 074°09'0 0.0
2014-Jul-04 12:33N 40°41' W 074°09'0 0.0
2014-Jul-04 11:33N 40°41' W 074°09'0 0.0
2014-Jul-04 10:33N 40°41' W 074°09'0 0.0
2014-Jul-04 09:32N 40°41' W 074°09'0 0.0
2014-Jul-04 08:31N 40°41' W 074°09'0 0.0
2014-Jul-04 07:32N 40°41' W 074°09'0 0.0
2014-Jul-04 06:27N 40°41' W 074°09'0 0.0
2014-Jul-04 05:30N 40°41' W 074°09'0 0.0
2014-Jul-04 04:30N 40°41' W 074°09'0 0.0
2014-Jul-04 03:33N 40°41' W 074°09'0 0.0
2014-Jul-04 02:22N 40°41' W 074°09'0 0.0
2014-Jul-04 01:22N 40°41' W 074°09'0 0.0
2014-Jul-04 00:31N 40°41' W 074°09'0 0.0
2014-Jul-03 23:28N 40°41' W 074°09'0 0.0
2014-Jul-03 22:31N 40°41' W 074°09'1 1.1
2014-Jul-03 21:34N 40°40' W 074°08'4 3.6
2014-Jul-03 20:33N 40°39' W 074°04'1111.0
2014-Jul-03 19:34N 40°30' W 073°56'9 9.1
2014-Jul-03 18:33N 40°23' W 073°47'1414.0
2014-Jul-03 17:34N 40°10' W 073°44'1818.0
2014-Jul-03 16:33N 39°52' W 073°42'1817.7
2014-Jul-03 15:33N 39°34' W 073°40'1818.1
2014-Jul-03 14:33N 39°16' W 073°40'1818.2
2014-Jul-03 13:33N 38°58' W 073°40'1817.9
2014-Jul-03 12:32N 38°40' W 073°40'77517.2
2014-Jul-01 15:25N 26°33' W 078°59'  
Track history (hours):
 
Tides and Currents Weather Stations Pressure Air Temp Water Temp Dewpoint Dewpoint Depression Visibility Wind Speed Wind Dir Waves Ship Positions

MSC Maya

Last reported at 2014-Jul-09 18:21 UTC. Time now 2014-Jul-25 09:03 UTC.
Position N 33°40' W 076°52'.
Warning: this ship's position is 15 days out of date.

Length 180 m; draft 8.3 m.

Type: Cargo ship. MMSI: 351384000.

Date/timePositionNaut miles runAvg speedWind from/ knotsBaromVisibWave heightAir tempDewpointWater temp
2014-Jul-09 18:21N 33°40' W 076°52'1212.8
2014-Jul-09 17:25N 33°48' W 076°41'3113.5
2014-Jul-09 15:09N 34°07' W 076°12'913.5
2014-Jul-09 14:27N 34°13' W 076°04'1313.0
2014-Jul-09 13:28N 34°22' W 075°53'1914.0
2014-Jul-09 12:08N 34°36' W 075°38'913.7
2014-Jul-09 11:31N 34°43' W 075°31'1413.0
2014-Jul-09 10:26N 34°53' W 075°20'1011.6
2014-Jul-09 09:33N 35°00' W 075°11'11011.0
2014-Jul-08 23:33N 36°48' W 075°43'1413.4
2014-Jul-08 22:30N 36°56' W 075°57'1212.1
2014-Jul-08 21:32N 36°60' W 076°11'9 8.6
2014-Jul-08 20:32N 36°55' W 076°20'2 2.0
2014-Jul-08 19:24N 36°53' W 076°21'0 0.0
2014-Jul-08 15:31N 36°53' W 076°21'0 0.0
2014-Jul-08 11:27N 36°53' W 076°21'3 1.7
2014-Jul-08 09:29N 36°56' W 076°20'10 8.6
2014-Jul-08 08:18N 36°59' W 076°08'6 8.7
2014-Jul-08 07:33N 36°59' W 076°00'1514.6
2014-Jul-08 06:33N 37°12' W 076°09'9716.0
2014-Jul-08 00:30N 38°48' W 076°25'1516.3
2014-Jul-07 23:33N 39°03' W 076°23'1212.1
2014-Jul-07 22:34N 39°13' W 076°32'2 2.4
2014-Jul-07 21:31N 39°15' W 076°33'0 0.0
2014-Jul-07 20:31N 39°15' W 076°33'0 0.0
2014-Jul-07 19:31N 39°15' W 076°33'0 0.0
2014-Jul-07 18:25N 39°15' W 076°33'0 0.0
2014-Jul-07 17:32N 39°15' W 076°33'0 0.0
2014-Jul-07 16:32N 39°15' W 076°33'0 0.0
2014-Jul-07 15:32N 39°15' W 076°33'0 0.0
2014-Jul-07 14:32N 39°15' W 076°33'0 0.0
2014-Jul-07 13:32N 39°15' W 076°33'0 0.0
2014-Jul-07 12:32N 39°15' W 076°33'0 0.0
2014-Jul-07 11:32N 39°15' W 076°33'0 0.0
2014-Jul-07 10:32N 39°15' W 076°33'0 0.0
2014-Jul-07 09:33N 39°15' W 076°33'0 0.0
2014-Jul-07 08:33N 39°15' W 076°33'0 0.0
2014-Jul-07 07:33N 39°15' W 076°33'0 0.0
2014-Jul-07 06:33N 39°15' W 076°33'0 0.0
2014-Jul-07 05:33N 39°15' W 076°33'0 0.0
2014-Jul-07 04:34N 39°15' W 076°33'0 0.0
2014-Jul-07 03:33N 39°15' W 076°33'0 0.0
2014-Jul-07 02:33N 39°15' W 076°33'0 0.0
2014-Jul-07 01:33N 39°15' W 076°33'4 4.4
2014-Jul-07 00:33N 39°12' W 076°30'1212.5
2014-Jul-06 23:33N 39°01' W 076°23'1615.9
2014-Jul-06 22:33N 38°45' W 076°26'9215.2
2014-Jul-06 16:31N 37°14' W 076°08'1213.0
2014-Jul-06 15:33N 37°02' W 076°04'9 9.3
2014-Jul-06 14:33N 36°56' W 075°55'1211.7
2014-Jul-06 13:33N 36°49' W 075°43'2511.9
2014-Jul-06 11:25N 36°59' W 075°13'4 1.3
2014-Jul-06 08:16N 37°03' W 075°14'1215.4
2014-Jul-06 07:28N 37°13' W 075°05'13615.3
2014-Jul-05 22:33N 39°18' W 073°57'1716.5
2014-Jul-05 21:33N 39°35' W 073°54'1717.1
2014-Jul-05 20:33N 39°52' W 073°51'3515.5
2014-Jul-05 18:19N 40°26' W 073°49'1011.9
2014-Jul-05 17:27N 40°32' W 074°01'8 9.1
2014-Jul-05 16:34N 40°39' W 074°05'4 4.0
2014-Jul-05 15:33N 40°41' W 074°09'0 0.1
2014-Jul-05 14:32N 40°41' W 074°09'0 0.0
2014-Jul-05 13:31N 40°41' W 074°09'0 0.0
2014-Jul-05 12:32N 40°41' W 074°09'0 0.0
2014-Jul-05 11:32N 40°41' W 074°09'0 0.0
2014-Jul-05 10:29N 40°41' W 074°09'0 0.0
2014-Jul-05 09:32N 40°41' W 074°09'0 0.0
2014-Jul-05 08:32N 40°41' W 074°09'0 0.0
2014-Jul-05 07:32N 40°41' W 074°09'0 0.0
2014-Jul-05 06:32N 40°41' W 074°09'0 0.0
2014-Jul-05 05:32N 40°41' W 074°09'0 0.0
2014-Jul-05 04:32N 40°41' W 074°09'0 0.0
2014-Jul-05 03:32N 40°41' W 074°09'0 0.0
2014-Jul-05 02:32N 40°41' W 074°09'0 0.0
2014-Jul-05 01:32N 40°41' W 074°09'0 0.0
2014-Jul-05 00:32N 40°41' W 074°09'0 0.0
2014-Jul-04 23:32N 40°41' W 074°09'0 0.0
2014-Jul-04 22:32N 40°41' W 074°09'0 0.0
2014-Jul-04 21:32N 40°41' W 074°09'0 0.0
2014-Jul-04 20:32N 40°41' W 074°09'0 0.0
2014-Jul-04 19:33N 40°41' W 074°09'0 0.0
2014-Jul-04 18:27N 40°41' W 074°09'0 0.0
2014-Jul-04 17:33N 40°41' W 074°09'0 0.0
2014-Jul-04 16:33N 40°41' W 074°09'0 0.0
2014-Jul-04 15:33N 40°41' W 074°09'0 0.0
2014-Jul-04 14:33N 40°41' W 074°09'0 0.0
2014-Jul-04 13:33N 40°41' W 074°09'0 0.0
2014-Jul-04 12:33N 40°41' W 074°09'0 0.0
2014-Jul-04 11:33N 40°41' W 074°09'0 0.0
2014-Jul-04 10:33N 40°41' W 074°09'0 0.0
2014-Jul-04 09:32N 40°41' W 074°09'0 0.0
2014-Jul-04 08:31N 40°41' W 074°09'0 0.0
2014-Jul-04 07:32N 40°41' W 074°09'0 0.0
2014-Jul-04 06:27N 40°41' W 074°09'0 0.0
2014-Jul-04 05:30N 40°41' W 074°09'0 0.0
2014-Jul-04 04:30N 40°41' W 074°09'0 0.0
2014-Jul-04 03:33N 40°41' W 074°09'0 0.0
2014-Jul-04 02:22N 40°41' W 074°09'0 0.0
2014-Jul-04 01:22N 40°41' W 074°09'0 0.0
2014-Jul-04 00:31N 40°41' W 074°09'0 0.0
2014-Jul-03 23:28N 40°41' W 074°09'0 0.0
2014-Jul-03 22:31N 40°41' W 074°09'1 1.1
2014-Jul-03 21:34N 40°40' W 074°08'4 3.6
2014-Jul-03 20:33N 40°39' W 074°04'1111.0
2014-Jul-03 19:34N 40°30' W 073°56'9 9.1
2014-Jul-03 18:33N 40°23' W 073°47'1414.0
2014-Jul-03 17:34N 40°10' W 073°44'1818.0
2014-Jul-03 16:33N 39°52' W 073°42'1817.7
2014-Jul-03 15:33N 39°34' W 073°40'1818.1
2014-Jul-03 14:33N 39°16' W 073°40'1818.2
2014-Jul-03 13:33N 38°58' W 073°40'1817.9
2014-Jul-03 12:32N 38°40' W 073°40'77517.2
2014-Jul-01 15:25N 26°33' W 078°59'  

Dump ship's entire track history